Time;durP1;ratioP1;P1;durP2;ratioP2;P2;SDS_P1;SDS_P2;PMS_P1;PMS_P2;Temp;Humidity;BMP_temperature;BMP_pressure;BME280_temperature;BME280_humidity;BME280_pressure;Samples;Min_cycle;Max_cycle;Signal;HPM_P1;HPM_P2
2021/08/31 00:00:29;;;;;;;6.47;5.87;;;12.60;99.90;;;;;;5006673;28;20191;-73
2021/08/31 00:02:54;;;;;;;7.30;6.57;;;12.60;99.90;;;;;;5009846;28;20206;-74
2021/08/31 00:05:20;;;;;;;6.90;5.97;;;12.50;99.90;;;;;;5024647;28;20254;-73
2021/08/31 00:07:46;;;;;;;5.80;5.30;;;12.50;99.90;;;;;;5010430;28;20185;-73
2021/08/31 00:10:12;;;;;;;8.23;6.03;;;12.40;99.90;;;;;;5009749;28;20174;-73
2021/08/31 00:12:40;;;;;;;6.50;5.90;;;12.40;99.90;;;;;;5009933;28;20209;-73
2021/08/31 00:15:08;;;;;;;6.77;6.17;;;12.40;99.90;;;;;;5009492;28;20443;-73
2021/08/31 00:17:34;;;;;;;5.63;5.10;;;12.40;99.90;;;;;;5010733;28;21225;-74
2021/08/31 00:19:59;;;;;;;5.87;5.37;;;12.30;99.90;;;;;;5010465;28;20477;-73
2021/08/31 00:22:25;;;;;;;6.70;6.20;;;12.30;99.90;;;;;;5009492;28;20503;-73
2021/08/31 00:24:51;;;;;;;7.13;6.37;;;12.30;99.90;;;;;;5008538;28;20623;-73
2021/08/31 00:27:16;;;;;;;8.00;5.43;;;12.20;99.90;;;;;;5010478;28;20182;-74
2021/08/31 00:29:42;;;;;;;10.90;6.00;;;12.10;99.90;;;;;;5012214;28;20205;-74
2021/08/31 00:32:08;;;;;;;6.10;5.50;;;12.10;99.90;;;;;;5008842;28;20547;-73
2021/08/31 00:34:34;;;;;;;5.77;5.23;;;12.10;99.90;;;;;;5008531;28;20191;-73
2021/08/31 00:36:59;;;;;;;7.70;6.90;;;12.10;99.90;;;;;;5009165;28;21128;-73
2021/08/31 00:39:25;;;;;;;6.67;6.03;;;12.00;99.90;;;;;;5008307;28;20177;-73
2021/08/31 00:41:51;;;;;;;7.67;5.93;;;12.00;99.90;;;;;;5009715;28;20179;-73
2021/08/31 00:44:24;;;;;;;6.20;5.60;;;12.00;99.90;;;;;;5007662;28;20229;-73
2021/08/31 00:46:57;;;;;;;6.93;6.30;;;12.00;99.90;;;;;;5009763;28;20553;-73
2021/08/31 00:49:26;;;;;;;7.10;6.40;;;12.00;99.90;;;;;;5009671;28;20500;-73
2021/08/31 00:51:53;;;;;;;7.03;6.33;;;11.90;99.90;;;;;;5007707;28;20485;-73
2021/08/31 00:54:19;;;;;;;7.33;6.63;;;11.90;99.90;;;;;;5008346;28;20594;-73
2021/08/31 00:56:46;;;;;;;7.20;6.50;;;11.90;99.90;;;;;;5006832;28;20425;-74
2021/08/31 00:59:14;;;;;;;7.13;6.47;;;11.90;99.90;;;;;;5006822;28;20571;-73
2021/08/31 01:01:40;;;;;;;7.93;7.13;;;11.90;99.90;;;;;;5005578;28;20568;-73
2021/08/31 01:04:06;;;;;;;6.37;5.83;;;11.80;99.90;;;;;;5005929;28;20540;-73
2021/08/31 01:06:32;;;;;;;6.97;6.37;;;11.80;99.90;;;;;;5009278;28;20253;-74
2021/08/31 01:08:58;;;;;;;6.40;5.80;;;11.80;99.90;;;;;;5006182;28;20487;-73
2021/08/31 01:11:24;;;;;;;6.63;6.03;;;11.80;99.90;;;;;;5009948;28;20432;-73
2021/08/31 01:13:51;;;;;;;7.10;6.50;;;11.70;99.90;;;;;;5010415;28;20906;-73
2021/08/31 01:16:16;;;;;;;7.27;6.60;;;11.70;99.90;;;;;;5006821;28;20436;-73
2021/08/31 01:18:42;;;;;;;9.80;6.27;;;11.70;99.90;;;;;;5009616;28;20433;-73
2021/08/31 01:21:09;;;;;;;7.03;6.40;;;11.70;99.90;;;;;;5009002;28;20190;-73
2021/08/31 01:23:35;;;;;;;7.07;5.80;;;11.70;99.90;;;;;;5010507;28;20202;-73
2021/08/31 01:26:01;;;;;;;6.30;5.70;;;11.70;99.90;;;;;;5009444;28;21073;-73
2021/08/31 01:28:32;;;;;;;7.30;5.70;;;11.60;99.90;;;;;;5008881;28;21004;-73
2021/08/31 01:30:59;;;;;;;5.87;5.37;;;11.60;99.90;;;;;;5012048;28;20948;-73
2021/08/31 01:33:30;;;;;;;6.73;6.00;;;11.60;99.90;;;;;;5009288;28;20444;-73
2021/08/31 01:35:56;;;;;;;6.80;6.00;;;11.60;99.90;;;;;;5025705;28;20429;-73
2021/08/31 01:38:22;;;;;;;6.07;5.50;;;11.60;99.90;;;;;;5008271;28;21225;-72
2021/08/31 01:40:48;;;;;;;6.20;5.60;;;11.60;99.90;;;;;;5026468;28;20437;-73
2021/08/31 01:43:24;;;;;;;6.20;5.60;;;11.60;99.90;;;;;;5008735;28;20782;-73
2021/08/31 01:45:51;;;;;;;6.77;5.23;;;11.50;99.90;;;;;;5009377;28;20437;-73
2021/08/31 01:48:17;;;;;;;6.63;5.77;;;11.50;99.90;;;;;;5004729;28;20433;-73
2021/08/31 01:50:42;;;;;;;6.77;5.30;;;11.50;99.90;;;;;;5006990;28;20425;-73
2021/08/31 01:53:08;;;;;;;7.13;5.70;;;11.50;99.90;;;;;;5010899;28;20272;-73
2021/08/31 01:55:34;;;;;;;6.20;5.63;;;11.40;99.90;;;;;;5014748;28;20179;-73
2021/08/31 01:58:00;;;;;;;5.20;4.80;;;11.40;99.90;;;;;;5012059;28;20186;-73
2021/08/31 02:00:26;;;;;;;7.20;6.50;;;11.40;99.90;;;;;;5013120;28;20567;-73
2021/08/31 02:02:52;;;;;;;7.00;5.20;;;11.40;99.90;;;;;;5014552;28;20611;-73
2021/08/31 02:05:18;;;;;;;6.30;5.70;;;11.40;99.90;;;;;;5010293;28;20863;-73
2021/08/31 02:07:44;;;;;;;6.40;5.80;;;11.40;99.90;;;;;;5015656;28;20777;-73
2021/08/31 02:10:10;;;;;;;7.00;6.13;;;11.30;99.90;;;;;;5013512;28;20187;-73
2021/08/31 02:12:36;;;;;;;6.20;5.60;;;11.30;99.90;;;;;;5013449;28;20243;-73
2021/08/31 02:15:02;;;;;;;7.33;6.03;;;11.30;99.90;;;;;;5012489;28;20520;-73
2021/08/31 02:17:28;;;;;;;6.43;5.83;;;11.30;99.90;;;;;;5014249;28;20214;-73
2021/08/31 02:19:53;;;;;;;6.70;6.03;;;11.30;99.90;;;;;;5011941;28;20515;-73
2021/08/31 02:22:19;;;;;;;7.17;6.37;;;11.20;99.90;;;;;;5015146;28;20660;-73
2021/08/31 02:24:45;;;;;;;7.00;6.27;;;11.20;99.90;;;;;;5010884;28;20167;-74
2021/08/31 02:27:11;;;;;;;6.80;6.10;;;11.20;99.90;;;;;;5013919;28;20264;-74
2021/08/31 02:29:37;;;;;;;7.97;5.27;;;11.20;99.90;;;;;;5027062;28;20309;-73
2021/08/31 02:32:05;;;;;;;7.27;6.57;;;11.20;99.90;;;;;;5013698;28;20851;-73
2021/08/31 02:34:31;;;;;;;6.20;5.63;;;11.20;99.90;;;;;;5010626;28;20204;-73
2021/08/31 02:36:56;;;;;;;7.63;6.77;;;11.10;99.90;;;;;;5013899;28;20433;-73
2021/08/31 02:39:22;;;;;;;6.30;5.70;;;11.10;99.90;;;;;;5012932;28;20434;-73
2021/08/31 02:41:48;;;;;;;5.93;5.33;;;11.10;99.90;;;;;;5012872;28;20248;-73
2021/08/31 02:44:13;;;;;;;6.77;5.60;;;11.10;99.90;;;;;;5013998;28;20558;-73
2021/08/31 02:46:39;;;;;;;6.13;5.50;;;11.00;99.90;;;;;;5012384;28;20679;-73
2021/08/31 02:49:05;;;;;;;6.77;6.20;;;11.00;99.90;;;;;;5011068;28;20167;-73
2021/08/31 02:51:31;;;;;;;6.27;5.67;;;11.00;99.90;;;;;;5012565;28;20178;-75
2021/08/31 02:53:56;;;;;;;7.70;6.03;;;11.00;99.90;;;;;;5013493;28;20193;-72
2021/08/31 02:56:22;;;;;;;7.33;6.00;;;11.00;99.90;;;;;;5013531;28;20218;-72
2021/08/31 02:58:48;;;;;;;8.07;6.27;;;11.00;99.90;;;;;;5011560;28;20178;-73
2021/08/31 03:03:59;;;;;;;7.93;5.47;;;11.00;99.90;;;;;;5010888;28;20679;-72
2021/08/31 03:06:26;;;;;;;7.67;6.87;;;11.00;99.90;;;;;;5008513;28;20442;-72
2021/08/31 03:08:51;;;;;;;6.43;5.83;;;10.90;99.90;;;;;;5009001;28;20459;-72
2021/08/31 03:11:17;;;;;;;7.60;6.27;;;10.90;99.90;;;;;;5011115;28;20457;-72
2021/08/31 03:13:43;;;;;;;6.40;5.80;;;10.90;99.90;;;;;;5004992;28;20189;-72
2021/08/31 03:16:09;;;;;;;7.13;5.73;;;10.90;99.90;;;;;;5008598;28;21432;-72
2021/08/31 03:18:34;;;;;;;5.80;5.20;;;10.90;99.90;;;;;;5012882;28;20703;-72
2021/08/31 03:21:00;;;;;;;5.53;5.03;;;10.80;99.90;;;;;;5010569;28;20170;-72
2021/08/31 03:23:26;;;;;;;7.17;4.90;;;10.80;99.90;;;;;;5010558;28;20271;-72
2021/08/31 03:25:51;;;;;;;6.70;6.00;;;10.80;99.90;;;;;;5013730;28;20177;-72
2021/08/31 03:28:17;;;;;;;6.17;5.57;;;10.80;99.90;;;;;;5013163;28;20179;-72
2021/08/31 03:30:43;;;;;;;6.40;5.60;;;10.80;99.90;;;;;;5011229;28;20233;-72
2021/08/31 03:33:08;;;;;;;8.80;5.43;;;10.70;99.90;;;;;;5011730;28;20680;-73
2021/08/31 03:35:34;;;;;;;6.67;5.97;;;10.80;99.90;;;;;;5011175;28;20178;-73
2021/08/31 03:38:00;;;;;;;6.30;5.10;;;10.70;99.90;;;;;;5012131;28;20183;-73
2021/08/31 03:40:25;;;;;;;5.50;5.00;;;10.70;99.90;;;;;;5008526;28;20636;-72
2021/08/31 03:42:51;;;;;;;8.00;6.20;;;10.70;99.90;;;;;;5012712;28;20531;-73
2021/08/31 03:45:18;;;;;;;7.83;6.50;;;10.70;99.90;;;;;;5010474;28;20221;-73
2021/08/31 03:47:44;;;;;;;7.60;6.33;;;10.60;99.90;;;;;;5012916;28;20612;-73
2021/08/31 03:50:10;;;;;;;7.57;6.10;;;10.60;99.90;;;;;;5011058;28;20483;-73
2021/08/31 03:52:36;;;;;;;6.83;5.77;;;10.60;99.90;;;;;;5007051;28;20269;-72
2021/08/31 03:55:03;;;;;;;6.43;5.90;;;10.60;99.90;;;;;;5010317;28;20441;-72
2021/08/31 03:57:28;;;;;;;9.10;6.20;;;10.60;99.90;;;;;;5010651;28;20441;-73
2021/08/31 03:59:54;;;;;;;8.93;6.17;;;10.60;99.90;;;;;;5008995;28;20439;-73
2021/08/31 04:02:21;;;;;;;8.90;6.67;;;10.60;99.90;;;;;;5012533;28;20198;-73
2021/08/31 04:04:50;;;;;;;8.57;6.77;;;10.70;99.90;;;;;;5011734;28;20683;-73
2021/08/31 04:07:19;;;;;;;9.50;6.40;;;10.60;99.90;;;;;;5006453;28;20444;-73
2021/08/31 04:09:44;;;;;;;9.77;7.20;;;10.60;99.90;;;;;;5010839;28;20469;-73
2021/08/31 04:12:10;;;;;;;6.97;6.27;;;10.70;99.90;;;;;;5010416;28;20605;-73
2021/08/31 04:14:35;;;;;;;9.50;7.50;;;10.70;99.90;;;;;;5011916;28;20217;-73
2021/08/31 04:17:02;;;;;;;12.83;7.17;;;10.80;99.90;;;;;;5010001;28;20202;-73
2021/08/31 04:19:28;;;;;;;13.43;8.73;;;10.80;99.90;;;;;;5007564;28;20633;-73
2021/08/31 04:21:55;;;;;;;8.77;6.77;;;10.70;99.90;;;;;;5011968;28;20842;-73
2021/08/31 04:24:21;;;;;;;7.77;6.20;;;10.70;99.90;;;;;;5008992;28;20527;-73
2021/08/31 04:26:46;;;;;;;8.47;6.97;;;10.70;99.90;;;;;;5011865;28;20582;-73
2021/08/31 04:29:12;;;;;;;9.37;6.87;;;10.60;99.90;;;;;;5009826;28;20650;-73
2021/08/31 04:31:37;;;;;;;9.87;6.13;;;10.60;99.90;;;;;;5012880;28;20179;-73
2021/08/31 04:34:03;;;;;;;9.23;6.47;;;10.60;99.90;;;;;;5010937;28;20193;-73
2021/08/31 04:36:29;;;;;;;7.33;6.03;;;10.60;99.90;;;;;;5009549;28;20186;-73
2021/08/31 04:38:54;;;;;;;8.97;6.10;;;10.60;99.90;;;;;;4999640;28;20187;-73
2021/08/31 04:41:20;;;;;;;8.03;7.23;;;10.50;99.90;;;;;;5001693;28;20197;-73
2021/08/31 04:43:46;;;;;;;9.80;6.83;;;10.60;99.90;;;;;;5011713;28;20222;-73
2021/08/31 04:46:11;;;;;;;12.10;6.63;;;10.60;99.90;;;;;;5009915;28;20180;-73
2021/08/31 04:48:38;;;;;;;8.57;6.30;;;10.60;99.90;;;;;;5010390;28;20927;-73
2021/08/31 04:51:03;;;;;;;7.73;6.90;;;10.50;99.90;;;;;;5010414;28;20570;-73
2021/08/31 04:53:29;;;;;;;10.70;7.00;;;10.60;99.90;;;;;;5009586;28;20469;-73
2021/08/31 04:55:55;;;;;;;7.50;6.20;;;10.60;99.90;;;;;;5008560;28;20575;-73
2021/08/31 04:58:21;;;;;;;8.60;6.80;;;10.60;99.90;;;;;;5010378;28;20189;-73
2021/08/31 05:00:46;;;;;;;6.93;6.23;;;10.60;99.90;;;;;;5011388;28;20487;-73
2021/08/31 05:03:12;;;;;;;9.10;8.13;;;10.70;99.90;;;;;;5011364;28;20206;-73
2021/08/31 05:05:38;;;;;;;7.80;6.40;;;10.70;99.90;;;;;;5009252;28;20266;-73
2021/08/31 05:08:04;;;;;;;11.20;7.70;;;10.70;99.90;;;;;;5006106;28;20262;-73
2021/08/31 05:10:30;;;;;;;7.97;6.10;;;10.70;99.90;;;;;;5007525;28;20210;-73
2021/08/31 05:12:55;;;;;;;9.20;6.50;;;10.70;99.90;;;;;;5009559;28;20818;-73
2021/08/31 05:15:21;;;;;;;10.50;7.00;;;10.80;99.90;;;;;;5009303;28;20537;-74
2021/08/31 05:17:46;;;;;;;7.90;6.60;;;10.80;99.90;;;;;;5012237;28;20202;-74
2021/08/31 05:20:12;;;;;;;7.60;6.57;;;10.80;99.90;;;;;;5008780;28;20270;-73
2021/08/31 05:22:38;;;;;;;8.83;5.83;;;10.80;99.90;;;;;;5009364;28;20211;-73
2021/08/31 05:25:05;;;;;;;14.90;7.90;;;10.90;99.90;;;;;;5009402;28;20189;-73
2021/08/31 05:27:31;;;;;;;8.60;6.87;;;10.90;99.90;;;;;;5007496;28;20178;-73
2021/08/31 05:29:57;;;;;;;8.07;7.17;;;11.00;99.90;;;;;;5013256;28;20981;-73
2021/08/31 05:32:23;;;;;;;8.27;6.77;;;11.00;99.90;;;;;;5014040;28;20544;-73
2021/08/31 05:34:49;;;;;;;12.03;7.30;;;11.00;99.90;;;;;;5014493;28;20788;-73
2021/08/31 05:37:15;;;;;;;10.83;7.50;;;11.10;99.90;;;;;;5024674;28;20440;-73
2021/08/31 05:39:41;;;;;;;9.00;7.30;;;11.20;99.90;;;;;;5012730;28;20178;-73
2021/08/31 05:42:08;;;;;;;9.23;6.00;;;11.20;99.90;;;;;;5011829;28;21364;-73
2021/08/31 05:44:35;;;;;;;10.57;7.87;;;11.30;99.90;;;;;;5014540;28;20185;-73
2021/08/31 05:47:02;;;;;;;9.80;6.97;;;11.40;99.90;;;;;;5015336;28;20448;-73
2021/08/31 05:49:30;;;;;;;9.23;7.67;;;11.40;99.90;;;;;;5012529;28;20434;-73
2021/08/31 05:51:56;;;;;;;10.53;8.37;;;11.50;99.90;;;;;;5014563;28;20425;-73
2021/08/31 05:54:24;;;;;;;9.93;6.90;;;11.60;99.90;;;;;;5011811;28;20433;-73
2021/08/31 05:56:49;;;;;;;14.70;8.90;;;11.80;99.90;;;;;;5013855;28;20917;-73
2021/08/31 05:59:15;;;;;;;13.23;9.00;;;11.80;99.90;;;;;;5013601;28;20603;-73
2021/08/31 06:01:41;;;;;;;10.13;6.93;;;11.90;99.90;;;;;;5013700;28;20186;-73
2021/08/31 06:04:07;;;;;;;9.00;7.30;;;11.90;99.90;;;;;;5014475;28;20281;-74
2021/08/31 06:06:33;;;;;;;8.70;7.50;;;12.00;99.90;;;;;;5002335;28;20974;-74
2021/08/31 06:08:59;;;;;;;10.40;9.13;;;12.10;99.90;;;;;;5006249;28;20176;-74
2021/08/31 06:11:24;;;;;;;11.30;7.43;;;12.20;99.90;;;;;;5009809;28;20205;-74
2021/08/31 06:13:50;;;;;;;11.00;7.70;;;12.30;99.90;;;;;;5006670;28;20214;-73
2021/08/31 06:16:16;;;;;;;15.40;8.57;;;12.30;99.90;;;;;;5008518;28;20178;-73
2021/08/31 06:18:41;;;;;;;12.50;8.50;;;12.50;99.90;;;;;;5007829;28;20256;-72
2021/08/31 06:21:07;;;;;;;21.03;8.00;;;12.50;99.90;;;;;;5013170;28;20638;-73
2021/08/31 06:23:33;;;;;;;13.17;8.70;;;12.60;99.90;;;;;;5008741;28;20667;-73
2021/08/31 06:25:59;;;;;;;9.90;8.00;;;12.70;99.90;;;;;;5012509;28;20186;-72
2021/08/31 06:28:25;;;;;;;14.27;8.70;;;12.70;99.90;;;;;;5009156;28;20442;-73
2021/08/31 06:30:51;;;;;;;13.13;9.43;;;12.80;99.90;;;;;;5011548;28;20183;-73
2021/08/31 06:33:17;;;;;;;16.30;8.80;;;12.80;99.90;;;;;;5011418;28;20436;-73
2021/08/31 06:35:43;;;;;;;12.53;9.80;;;13.00;99.90;;;;;;5010851;28;20257;-73
2021/08/31 06:38:09;;;;;;;14.43;7.73;;;13.10;99.90;;;;;;5010255;28;20994;-73
2021/08/31 06:40:34;;;;;;;12.90;8.40;;;13.10;99.90;;;;;;5009072;28;20926;-73
2021/08/31 06:43:00;;;;;;;8.93;7.57;;;13.30;99.90;;;;;;5012103;28;20220;-74
2021/08/31 06:45:26;;;;;;;10.30;8.47;;;13.30;99.90;;;;;;5011580;28;20202;-73
2021/08/31 06:47:52;;;;;;;14.27;9.00;;;13.40;99.90;;;;;;5012001;28;20430;-74
2021/08/31 06:50:18;;;;;;;15.03;8.23;;;13.50;99.90;;;;;;5011979;28;20262;-74
2021/08/31 06:52:45;;;;;;;11.40;9.20;;;13.50;99.90;;;;;;5008665;28;21130;-73
2021/08/31 06:55:12;;;;;;;14.13;9.37;;;13.60;99.90;;;;;;5010937;28;20456;-74
2021/08/31 06:57:38;;;;;;;12.13;8.27;;;13.70;99.90;;;;;;5009187;28;20441;-73
2021/08/31 07:00:06;;;;;;;9.80;7.80;;;13.70;99.90;;;;;;5011230;28;20425;-74
2021/08/31 07:02:32;;;;;;;11.00;8.10;;;13.80;99.90;;;;;;5002470;28;20213;-74
2021/08/31 07:04:58;;;;;;;9.57;7.43;;;13.90;99.90;;;;;;5001547;28;20442;-74
2021/08/31 07:07:24;;;;;;;9.93;7.60;;;13.90;99.90;;;;;;5012880;28;20483;-74
2021/08/31 07:09:50;;;;;;;10.80;8.10;;;14.00;99.90;;;;;;5006937;28;20259;-74
2021/08/31 07:12:15;;;;;;;15.53;8.70;;;14.10;99.90;;;;;;5007873;28;20181;-74
2021/08/31 07:14:41;;;;;;;11.03;7.57;;;14.20;99.90;;;;;;5006495;28;20171;-74
2021/08/31 07:17:07;;;;;;;10.73;7.80;;;14.30;99.90;;;;;;5006261;28;20187;-74
2021/08/31 07:19:32;;;;;;;12.10;7.27;;;14.40;99.90;;;;;;5011570;28;20526;-74
2021/08/31 07:21:58;;;;;;;8.90;7.27;;;14.50;99.90;;;;;;5011321;28;20194;-74
2021/08/31 07:24:24;;;;;;;8.60;7.17;;;14.50;99.90;;;;;;5004798;28;20631;-75
2021/08/31 07:26:50;;;;;;;7.60;6.20;;;14.50;99.90;;;;;;5010766;28;20434;-74
2021/08/31 07:29:16;;;;;;;12.20;7.60;;;14.50;99.90;;;;;;5003487;28;20257;-74
2021/08/31 07:31:42;;;;;;;14.50;7.60;;;14.60;99.90;;;;;;5011182;28;20186;-75
2021/08/31 07:34:08;;;;;;;9.30;7.57;;;14.80;99.90;;;;;;5011320;28;20925;-74
2021/08/31 07:36:34;;;;;;;7.00;6.00;;;14.90;99.90;;;;;;5008390;28;20433;-74
2021/08/31 07:39:00;;;;;;;7.33;6.47;;;14.90;99.90;;;;;;5008281;28;20447;-74
2021/08/31 07:41:25;;;;;;;8.73;6.90;;;15.00;99.90;;;;;;5008905;28;20183;-74
2021/08/31 07:43:52;;;;;;;6.40;5.80;;;15.10;99.90;;;;;;5011735;28;20215;-74
2021/08/31 07:46:19;;;;;;;6.67;5.00;;;15.20;99.90;;;;;;5010141;28;20197;-74
2021/08/31 07:48:45;;;;;;;7.90;6.60;;;15.30;99.90;;;;;;5009890;28;20429;-74
2021/08/31 07:51:11;;;;;;;7.03;5.50;;;15.40;99.90;;;;;;5011361;28;20443;-75
2021/08/31 07:53:37;;;;;;;6.90;5.50;;;15.40;99.90;;;;;;5011586;28;20429;-75
2021/08/31 07:56:04;;;;;;;7.97;5.37;;;15.60;99.90;;;;;;5011360;28;20428;-74
2021/08/31 07:58:30;;;;;;;6.87;5.43;;;15.70;99.90;;;;;;5011670;28;20437;-74
2021/08/31 08:00:55;;;;;;;5.37;4.87;;;15.80;99.90;;;;;;5009207;28;20429;-74
2021/08/31 08:03:21;;;;;;;6.63;5.80;;;15.80;99.90;;;;;;5009870;28;20597;-74
2021/08/31 08:05:47;;;;;;;4.60;4.20;;;15.80;99.90;;;;;;5012476;28;20171;-74
2021/08/31 08:08:12;;;;;;;7.73;4.73;;;15.90;99.90;;;;;;5012142;28;20179;-74
2021/08/31 08:10:38;;;;;;;6.90;5.13;;;15.90;99.90;;;;;;5010372;28;20182;-74
2021/08/31 08:13:04;;;;;;;8.73;4.53;;;16.00;99.90;;;;;;5011842;28;20178;-74
2021/08/31 08:15:30;;;;;;;5.57;5.07;;;16.20;99.90;;;;;;5008554;28;20185;-74
2021/08/31 08:17:56;;;;;;;4.67;4.20;;;16.40;99.90;;;;;;5010784;28;20232;-74
2021/08/31 08:20:22;;;;;;;4.80;4.40;;;16.50;99.90;;;;;;5008687;28;20437;-74
2021/08/31 08:22:48;;;;;;;3.90;3.60;;;16.60;99.90;;;;;;5008552;28;20950;-74
2021/08/31 08:25:15;;;;;;;5.43;4.23;;;16.80;99.90;;;;;;5010079;28;20440;-74
2021/08/31 08:27:41;;;;;;;4.57;4.10;;;16.80;99.90;;;;;;5011215;28;20491;-74
2021/08/31 08:30:07;;;;;;;5.10;4.37;;;16.90;99.90;;;;;;5010099;28;20432;-74
2021/08/31 08:32:33;;;;;;;5.60;3.87;;;16.90;99.90;;;;;;5008392;28;20487;-75
2021/08/31 08:34:59;;;;;;;4.93;3.50;;;17.00;99.90;;;;;;5010762;28;20436;-75
2021/08/31 08:37:25;;;;;;;3.40;3.10;;;17.20;99.90;;;;;;5008587;28;20189;-74
2021/08/31 08:39:51;;;;;;;6.10;3.60;;;17.30;99.90;;;;;;5010683;28;20178;-73
2021/08/31 08:42:17;;;;;;;5.33;4.23;;;17.40;99.90;;;;;;5010711;28;20452;-75
2021/08/31 08:44:42;;;;;;;4.47;3.70;;;17.50;99.90;;;;;;5010533;28;20436;-73
2021/08/31 08:47:08;;;;;;;5.83;4.20;;;17.60;99.90;;;;;;5009294;28;20209;-74
2021/08/31 08:49:34;;;;;;;4.40;3.90;;;17.70;99.90;;;;;;5008799;28;20187;-74
2021/08/31 08:52:01;;;;;;;4.20;3.80;;;17.70;99.90;;;;;;5010541;28;20794;-74
2021/08/31 08:54:27;;;;;;;4.20;3.77;;;17.70;99.90;;;;;;5013054;28;20179;-73
2021/08/31 08:56:55;;;;;;;3.73;3.43;;;17.90;99.90;;;;;;5012217;28;20434;-74
2021/08/31 08:59:21;;;;;;;5.33;3.90;;;17.90;99.90;;;;;;5012046;28;20416;-74
2021/08/31 09:01:52;;;;;;;5.50;4.20;;;18.00;99.90;;;;;;5007690;28;20894;-75
2021/08/31 09:04:21;;;;;;;3.80;3.50;;;18.10;99.90;;;;;;5013925;28;20922;-75
2021/08/31 09:06:47;;;;;;;3.90;3.33;;;18.20;99.90;;;;;;5016134;28;20487;-75
2021/08/31 09:09:13;;;;;;;8.83;3.60;;;18.30;99.90;;;;;;5015501;28;20401;-74
2021/08/31 09:11:40;;;;;;;4.63;4.10;;;18.50;99.90;;;;;;5015713;28;20767;-75
2021/08/31 09:14:28;;;;;;;5.40;3.77;;;18.50;99.90;;;;;;5015428;28;20440;-75
2021/08/31 09:16:55;;;;;;;4.70;3.70;;;18.80;99.90;;;;;;5010856;28;21030;-75
2021/08/31 09:19:38;;;;;;;5.77;4.00;;;18.80;99.90;;;;;;5011837;28;20532;-75
2021/08/31 09:22:12;;;;;;;4.07;3.67;;;18.90;99.90;;;;;;5012598;28;20432;-75
2021/08/31 09:24:38;;;;;;;4.63;4.20;;;19.00;99.90;;;;;;5013919;28;20942;-75
2021/08/31 09:27:03;;;;;;;5.53;4.20;;;19.10;99.90;;;;;;5012016;28;20487;-75
2021/08/31 09:29:39;;;;;;;3.90;3.33;;;19.10;99.90;;;;;;5012156;28;20499;-75
2021/08/31 09:32:08;;;;;;;4.50;3.90;;;19.20;99.90;;;;;;5013957;28;20166;-75
2021/08/31 09:34:35;;;;;;;3.90;3.60;;;19.30;99.90;;;;;;5011399;28;20426;-75
2021/08/31 09:37:30;;;;;;;7.97;4.33;;;19.40;99.90;;;;;;5015544;28;20447;-75
2021/08/31 09:40:04;;;;;;;4.07;3.77;;;19.60;99.90;;;;;;5012805;28;20487;-75
2021/08/31 09:42:30;;;;;;;3.60;3.30;;;19.70;99.90;;;;;;5013415;28;20428;-75
2021/08/31 09:45:05;;;;;;;4.10;3.70;;;19.90;99.90;;;;;;5015777;28;20867;-75
2021/08/31 09:47:35;;;;;;;4.47;4.07;;;20.10;99.90;;;;;;5014490;28;20420;-75
2021/08/31 09:50:03;;;;;;;4.00;3.60;;;20.20;99.90;;;;;;5013051;28;20440;-76
2021/08/31 09:52:28;;;;;;;4.63;3.97;;;20.30;99.90;;;;;;5013443;28;20430;-76
2021/08/31 09:54:54;;;;;;;4.40;4.03;;;20.40;99.90;;;;;;5013521;28;20775;-75
2021/08/31 09:57:36;;;;;;;4.30;4.00;;;20.40;99.90;;;;;;5014218;28;20184;-75
2021/08/31 10:00:06;;;;;;;3.80;3.40;;;20.60;99.90;;;;;;5012716;28;20177;-75
2021/08/31 10:02:32;;;;;;;4.53;4.13;;;20.60;99.90;;;;;;5014643;28;20762;-75
2021/08/31 10:04:58;;;;;;;4.53;4.13;;;20.60;99.90;;;;;;5011964;28;20429;-75
2021/08/31 10:07:24;;;;;;;9.13;4.60;;;20.80;99.90;;;;;;5013023;28;20483;-75
2021/08/31 10:09:51;;;;;;;4.30;3.80;;;20.90;99.90;;;;;;5015166;28;20236;-76
2021/08/31 10:12:20;;;;;;;4.20;3.90;;;21.00;99.90;;;;;;5022978;28;20434;-76
2021/08/31 10:14:50;;;;;;;4.57;4.23;;;21.10;99.90;;;;;;5012762;28;20409;-76
2021/08/31 10:17:21;;;;;;;3.80;3.50;;;21.20;99.90;;;;;;5011832;28;20958;-75
2021/08/31 10:19:50;;;;;;;4.40;4.00;;;21.30;99.90;;;;;;5010309;28;20429;-76
2021/08/31 10:22:16;;;;;;;4.20;3.80;;;21.30;99.90;;;;;;5012290;28;20432;-76
2021/08/31 10:24:44;;;;;;;4.43;4.03;;;21.30;99.90;;;;;;5011733;28;20548;-76
2021/08/31 10:27:28;;;;;;;4.63;4.20;;;21.30;99.90;;;;;;5011618;28;20453;-76
2021/08/31 10:30:19;;;;;;;4.50;4.10;;;21.30;99.90;;;;;;5010587;28;20441;-76
2021/08/31 10:32:57;;;;;;;6.53;4.90;;;21.40;99.90;;;;;;5009459;28;20430;-75
2021/08/31 10:35:30;;;;;;;4.60;4.20;;;21.50;99.90;;;;;;5010077;28;20437;-76
2021/08/31 10:37:57;;;;;;;7.40;5.00;;;21.50;99.90;;;;;;5013665;28;20437;-74
2021/08/31 10:40:44;;;;;;;5.10;4.40;;;21.50;99.90;;;;;;5011672;28;20574;-73
2021/08/31 10:43:11;;;;;;;7.20;4.60;;;21.50;99.90;;;;;;5012016;28;20458;-73
2021/08/31 10:45:38;;;;;;;5.20;4.07;;;21.40;99.90;;;;;;5018495;28;20429;-73
2021/08/31 10:48:22;;;;;;;4.87;4.30;;;21.50;99.90;;;;;;5015090;28;20405;-73
2021/08/31 10:51:11;;;;;;;4.77;4.40;;;21.70;99.90;;;;;;5015796;28;20402;-73
2021/08/31 10:53:37;;;;;;;4.60;4.20;;;21.70;99.90;;;;;;5015110;28;20423;-73
2021/08/31 10:56:24;;;;;;;6.17;4.20;;;21.70;99.90;;;;;;5004847;28;20744;-73
2021/08/31 10:58:52;;;;;;;4.63;4.23;;;21.50;99.90;;;;;;5014361;28;20507;-73
2021/08/31 11:01:21;;;;;;;4.80;4.30;;;21.50;99.90;;;;;;5013482;28;20396;-75
2021/08/31 11:03:48;;;;;;;4.00;3.70;;;21.90;99.90;;;;;;5014202;28;20954;-76
2021/08/31 11:06:18;;;;;;;4.30;3.90;;;22.20;99.90;;;;;;5013020;28;20429;-76
2021/08/31 11:09:11;;;;;;;4.33;3.97;;;22.50;99.90;;;;;;5013615;28;20453;-76
2021/08/31 11:11:38;;;;;;;4.00;3.60;;;22.60;99.90;;;;;;5010726;28;20492;-73
2021/08/31 11:14:05;;;;;;;4.67;4.03;;;22.70;99.90;;;;;;5014289;28;20724;-73
2021/08/31 11:16:37;;;;;;;4.20;3.60;;;22.90;99.90;;;;;;5013100;28;20409;-75
2021/08/31 11:19:21;;;;;;;5.13;4.00;;;23.00;99.90;;;;;;5014179;28;20437;-73
2021/08/31 11:21:48;;;;;;;4.37;4.03;;;22.90;99.90;;;;;;5013324;28;20409;-73
2021/08/31 11:24:14;;;;;;;4.03;3.70;;;22.60;99.90;;;;;;5012476;28;20457;-73
2021/08/31 11:26:40;;;;;;;4.40;4.00;;;22.70;99.90;;;;;;5012642;28;20492;-73
2021/08/31 11:29:08;;;;;;;4.00;3.70;;;22.70;99.90;;;;;;5013242;28;20178;-73
2021/08/31 11:31:34;;;;;;;5.73;3.83;;;23.10;99.90;;;;;;5013951;28;20171;-73
2021/08/31 11:34:00;;;;;;;4.87;3.90;;;23.40;99.90;;;;;;5012796;28;20954;-73
2021/08/31 11:36:30;;;;;;;5.17;4.67;;;23.50;99.90;;;;;;5013762;28;20405;-73
2021/08/31 11:38:58;;;;;;;4.40;4.00;;;23.40;99.90;;;;;;5013097;28;20178;-73
2021/08/31 11:41:27;;;;;;;4.83;4.43;;;23.60;99.90;;;;;;5013739;28;20531;-73
2021/08/31 11:44:00;;;;;;;4.23;3.93;;;23.40;99.90;;;;;;5013959;28;20527;-73
2021/08/31 11:46:28;;;;;;;5.67;3.80;;;23.10;99.90;;;;;;5012085;28;20414;-75
2021/08/31 11:49:14;;;;;;;5.27;4.50;;;23.10;99.90;;;;;;5012671;28;20871;-76
2021/08/31 11:52:00;;;;;;;3.97;3.67;;;23.30;99.90;;;;;;5012511;28;20441;-76
2021/08/31 11:54:28;;;;;;;5.00;4.33;;;23.40;99.90;;;;;;5013793;28;20410;-76
2021/08/31 11:56:59;;;;;;;4.67;4.13;;;23.50;99.90;;;;;;5012606;28;20460;-76
2021/08/31 11:59:44;;;;;;;4.77;4.37;;;23.80;99.90;;;;;;5013660;28;20959;-76
2021/08/31 12:02:17;;;;;;;5.27;4.13;;;23.80;99.90;;;;;;5012326;28;20497;-76
2021/08/31 12:04:45;;;;;;;4.00;3.70;;;23.70;99.90;;;;;;5008688;28;20445;-76
2021/08/31 12:07:13;;;;;;;3.80;3.50;;;23.70;99.90;;;;;;5009287;28;20434;-76
2021/08/31 12:09:44;;;;;;;4.50;4.13;;;23.90;99.90;;;;;;5014919;28;20426;-76
2021/08/31 12:12:10;;;;;;;4.27;3.97;;;24.10;99.90;;;;;;5021643;28;20409;-73
2021/08/31 12:14:37;;;;;;;5.10;4.60;;;24.50;99.90;;;;;;5026804;28;20825;-73
2021/08/31 12:17:03;;;;;;;4.70;4.30;;;24.70;99.90;;;;;;5022017;28;20477;-76
2021/08/31 12:19:29;;;;;;;4.13;3.73;;;24.70;99.90;;;;;;5026449;28;20425;-72
2021/08/31 12:22:09;;;;;;;3.97;3.53;;;24.70;99.90;;;;;;5027185;28;20202;-73
2021/08/31 12:24:35;;;;;;;5.00;3.70;;;24.80;99.90;;;;;;5023070;28;20216;-73
2021/08/31 12:27:36;;;;;;;4.90;4.50;;;25.00;99.90;;;;;;5019179;28;20441;-73
2021/08/31 12:30:01;;;;;;;4.40;4.10;;;25.00;99.90;;;;;;5026108;28;20440;-74
2021/08/31 12:32:29;;;;;;;5.47;4.97;;;25.00;99.90;;;;;;5022596;28;22716;-73
2021/08/31 12:34:57;;;;;;;4.03;3.73;;;24.80;99.90;;;;;;5019927;28;20260;-73
2021/08/31 12:37:34;;;;;;;4.17;3.43;;;24.90;99.90;;;;;;5021018;28;20433;-74
2021/08/31 12:40:19;;;;;;;6.50;4.03;;;25.00;99.90;;;;;;5022742;28;20416;-73
2021/08/31 12:42:47;;;;;;;4.93;4.53;;;25.20;99.90;;;;;;5027938;28;20540;-74
2021/08/31 12:45:14;;;;;;;4.50;4.20;;;25.30;99.90;;;;;;5019546;28;20544;-75
2021/08/31 12:47:54;;;;;;;4.30;4.00;;;25.60;99.90;;;;;;5025429;28;20426;-74
2021/08/31 12:50:20;;;;;;;4.43;4.10;;;25.40;99.90;;;;;;5032505;28;20429;-74